Mankato Municipal Airport

Current Flights

Departures
Number Departure To Airline
Arrivals
Number Arrival From Airline
Info
Name: Mankato Municipal Airport
Identifier:  MKT/KMKT
Local Time:  19. May 09:26
City
Flights per Day
1 flights
Distance: 695km (432mi)
Punctuality
87% (0 flights per day delayed)
Delay Average: 24 minutes
Current Weather
 8 C (Humidity: 93%)
  15kt (27km/h / 17mph) from 60°
24 knots Gusts

  Overcast at 800 feet (243 meter)
  16km (10 mi.)
 Light/Moderate: Rain
 METAR KMKT 190856Z AUTO 06015G24KT 10SM -RA OVC008 08/07 A2962 RMK AO2 PK WND 04026/0802 CIG 006V011 SLP035 P0004 60006 T00780067 55013

Current Delays

Departures
N/A
Arrivals
N/A

Destinations

Top Destinations
Airport Flights
per week
Seats
per week
  Rochester (RST) <1 - 0 0
  Duluth (DLH) <1 - 0 0
  Brainerd (BRD) <1 - 0 0
  Springfield (SGF) <1 - 0 0

Airlines & Planes

Top Airlines
Airline Flights
per Day
Seats
per Day
Nordwind Airlines <1 -
  Nolinor Aviation <1 -
  Flybe Nordic <1 -
  Novair <1 -
NetJets <1 -
Delta Private Jets <1 -
Top Plane Types
Manufacturer Model Flights Seats
Piper PA-28RT-201T 0.4/day - 0
Cessna C172 0.2/day - 0
Beech G36 Bonanza 0.1/day - 0